sensor_id;sensor_type;location;lat;lon;timestamp;pressure;altitude;pressure_sealevel;temperature;humidity
67840;BME280;54636;51.684;5.142;2024-03-08T00:00:05;101816.69;;;3.24;100.00
67840;BME280;54636;51.684;5.142;2024-03-08T00:02:47;101817.88;;;3.23;100.00
67840;BME280;54636;51.684;5.142;2024-03-08T00:05:13;101815.22;;;3.19;100.00
67840;BME280;54636;51.684;5.142;2024-03-08T00:07:40;101804.94;;;3.14;100.00
67840;BME280;54636;51.684;5.142;2024-03-08T00:10:07;101816.88;;;3.10;100.00
67840;BME280;54636;51.684;5.142;2024-03-08T00:12:36;101813.44;;;3.09;100.00
67840;BME280;54636;51.684;5.142;2024-03-08T00:15:02;101804.63;;;3.09;100.00
67840;BME280;54636;51.684;5.142;2024-03-08T00:17:27;101795.09;;;3.04;100.00
67840;BME280;54636;51.684;5.142;2024-03-08T00:19:53;101800.88;;;3.03;100.00
67840;BME280;54636;51.684;5.142;2024-03-08T00:22:19;101800.19;;;2.95;100.00
67840;BME280;54636;51.684;5.142;2024-03-08T00:24:45;101801.72;;;2.96;100.00
67840;BME280;54636;51.684;5.142;2024-03-08T00:27:10;101794.06;;;2.94;100.00
67840;BME280;54636;51.684;5.142;2024-03-08T00:29:37;101796.41;;;2.92;100.00
67840;BME280;54636;51.684;5.142;2024-03-08T00:32:04;101793.38;;;2.90;100.00
67840;BME280;54636;51.684;5.142;2024-03-08T00:34:29;101795.28;;;2.90;100.00
67840;BME280;54636;51.684;5.142;2024-03-08T00:36:55;101792.16;;;2.95;100.00
67840;BME280;54636;51.684;5.142;2024-03-08T00:39:20;101780.00;;;2.87;100.00
67840;BME280;54636;51.684;5.142;2024-03-08T00:41:46;101780.34;;;2.89;100.00
67840;BME280;54636;51.684;5.142;2024-03-08T00:44:12;101783.03;;;2.89;100.00
67840;BME280;54636;51.684;5.142;2024-03-08T00:46:38;101785.31;;;2.90;100.00
67840;BME280;54636;51.684;5.142;2024-03-08T00:49:03;101778.47;;;2.86;100.00
67840;BME280;54636;51.684;5.142;2024-03-08T00:51:28;101784.63;;;2.83;100.00
67840;BME280;54636;51.684;5.142;2024-03-08T00:53:54;101780.13;;;2.76;100.00
67840;BME280;54636;51.684;5.142;2024-03-08T00:56:20;101774.75;;;2.76;100.00
67840;BME280;54636;51.684;5.142;2024-03-08T00:58:45;101775.97;;;2.72;100.00
67840;BME280;54636;51.684;5.142;2024-03-08T01:01:13;101776.00;;;2.68;100.00
67840;BME280;54636;51.684;5.142;2024-03-08T01:03:42;101767.56;;;2.70;100.00
67840;BME280;54636;51.684;5.142;2024-03-08T01:06:08;101766.41;;;2.71;100.00
67840;BME280;54636;51.684;5.142;2024-03-08T01:08:34;101754.94;;;2.67;100.00
67840;BME280;54636;51.684;5.142;2024-03-08T01:10:59;101753.13;;;2.60;100.00
67840;BME280;54636;51.684;5.142;2024-03-08T01:13:24;101751.66;;;2.55;100.00
67840;BME280;54636;51.684;5.142;2024-03-08T01:15:50;101757.38;;;2.57;100.00
67840;BME280;54636;51.684;5.142;2024-03-08T01:18:15;101748.63;;;2.53;100.00
67840;BME280;54636;51.684;5.142;2024-03-08T01:20:41;101748.22;;;2.55;100.00
67840;BME280;54636;51.684;5.142;2024-03-08T01:23:06;101740.97;;;2.52;100.00
67840;BME280;54636;51.684;5.142;2024-03-08T01:25:33;101737.56;;;2.48;100.00
67840;BME280;54636;51.684;5.142;2024-03-08T01:27:58;101736.50;;;2.42;100.00
67840;BME280;54636;51.684;5.142;2024-03-08T01:30:24;101730.34;;;2.45;100.00
67840;BME280;54636;51.684;5.142;2024-03-08T01:32:49;101729.97;;;2.43;100.00
67840;BME280;54636;51.684;5.142;2024-03-08T01:35:14;101732.25;;;2.44;100.00
67840;BME280;54636;51.684;5.142;2024-03-08T01:37:40;101733.84;;;2.38;100.00
67840;BME280;54636;51.684;5.142;2024-03-08T01:40:06;101725.13;;;2.30;100.00
67840;BME280;54636;51.684;5.142;2024-03-08T01:42:33;101719.41;;;2.28;100.00
67840;BME280;54636;51.684;5.142;2024-03-08T01:44:59;101719.84;;;2.23;100.00
67840;BME280;54636;51.684;5.142;2024-03-08T01:47:24;101720.38;;;2.11;100.00
67840;BME280;54636;51.684;5.142;2024-03-08T01:49:50;101721.56;;;2.07;100.00
67840;BME280;54636;51.684;5.142;2024-03-08T01:52:16;101722.34;;;2.04;100.00
67840;BME280;54636;51.684;5.142;2024-03-08T01:54:44;101716.19;;;2.07;100.00
67840;BME280;54636;51.684;5.142;2024-03-08T01:57:10;101713.16;;;2.05;100.00
67840;BME280;54636;51.684;5.142;2024-03-08T01:59:36;101707.47;;;1.99;100.00
67840;BME280;54636;51.684;5.142;2024-03-08T02:02:02;101709.47;;;1.95;100.00
67840;BME280;54636;51.684;5.142;2024-03-08T02:04:30;101699.91;;;1.94;100.00
67840;BME280;54636;51.684;5.142;2024-03-08T02:06:56;101702.16;;;1.95;100.00
67840;BME280;54636;51.684;5.142;2024-03-08T02:09:23;101701.00;;;1.96;100.00
67840;BME280;54636;51.684;5.142;2024-03-08T02:11:50;101694.41;;;2.05;100.00
67840;BME280;54636;51.684;5.142;2024-03-08T02:14:17;101694.53;;;1.94;100.00
67840;BME280;54636;51.684;5.142;2024-03-08T02:16:42;101691.13;;;1.90;100.00
67840;BME280;54636;51.684;5.142;2024-03-08T02:19:07;101692.69;;;1.87;100.00
67840;BME280;54636;51.684;5.142;2024-03-08T02:21:35;101694.63;;;1.87;100.00
67840;BME280;54636;51.684;5.142;2024-03-08T02:24:01;101684.66;;;1.87;100.00
67840;BME280;54636;51.684;5.142;2024-03-08T02:26:27;101682.78;;;1.84;100.00
67840;BME280;54636;51.684;5.142;2024-03-08T02:28:53;101668.66;;;1.80;100.00
67840;BME280;54636;51.684;5.142;2024-03-08T02:31:19;101679.78;;;1.79;100.00
67840;BME280;54636;51.684;5.142;2024-03-08T02:33:44;101679.44;;;1.73;100.00
67840;BME280;54636;51.684;5.142;2024-03-08T02:36:12;101671.00;;;1.75;100.00
67840;BME280;54636;51.684;5.142;2024-03-08T02:38:38;101674.13;;;1.70;100.00
67840;BME280;54636;51.684;5.142;2024-03-08T02:41:06;101663.06;;;1.64;100.00
67840;BME280;54636;51.684;5.142;2024-03-08T02:43:31;101660.84;;;1.59;100.00
67840;BME280;54636;51.684;5.142;2024-03-08T02:45:56;101653.50;;;1.67;100.00
67840;BME280;54636;51.684;5.142;2024-03-08T02:48:22;101651.63;;;1.60;100.00
67840;BME280;54636;51.684;5.142;2024-03-08T02:50:47;101646.69;;;1.58;100.00
67840;BME280;54636;51.684;5.142;2024-03-08T02:53:13;101647.47;;;1.55;100.00
67840;BME280;54636;51.684;5.142;2024-03-08T02:55:39;101643.63;;;1.56;100.00
67840;BME280;54636;51.684;5.142;2024-03-08T02:58:06;101643.34;;;1.47;100.00
67840;BME280;54636;51.684;5.142;2024-03-08T03:00:35;101644.06;;;1.51;100.00
67840;BME280;54636;51.684;5.142;2024-03-08T03:03:00;101643.34;;;1.47;100.00
67840;BME280;54636;51.684;5.142;2024-03-08T03:05:28;101644.53;;;1.43;100.00
67840;BME280;54636;51.684;5.142;2024-03-08T03:07:55;101632.72;;;1.37;100.00
67840;BME280;54636;51.684;5.142;2024-03-08T03:10:20;101628.56;;;1.32;100.00
67840;BME280;54636;51.684;5.142;2024-03-08T03:12:47;101630.09;;;1.33;100.00
67840;BME280;54636;51.684;5.142;2024-03-08T03:15:17;101628.22;;;1.30;100.00
67840;BME280;54636;51.684;5.142;2024-03-08T03:17:49;101626.72;;;1.29;100.00
67840;BME280;54636;51.684;5.142;2024-03-08T03:20:19;101611.44;;;1.26;100.00
67840;BME280;54636;51.684;5.142;2024-03-08T03:22:49;101610.31;;;1.23;100.00
67840;BME280;54636;51.684;5.142;2024-03-08T03:25:20;101608.78;;;1.26;100.00
67840;BME280;54636;51.684;5.142;2024-03-08T03:27:51;101609.56;;;1.23;100.00
67840;BME280;54636;51.684;5.142;2024-03-08T03:30:16;101613.75;;;1.24;100.00
67840;BME280;54636;51.684;5.142;2024-03-08T03:32:47;101612.16;;;1.30;100.00
67840;BME280;54636;51.684;5.142;2024-03-08T03:35:14;101616.81;;;1.22;100.00
67840;BME280;54636;51.684;5.142;2024-03-08T03:37:40;101607.63;;;1.27;100.00
67840;BME280;54636;51.684;5.142;2024-03-08T03:40:08;101610.34;;;1.20;100.00
67840;BME280;54636;51.684;5.142;2024-03-08T03:42:34;101608.38;;;1.27;100.00
67840;BME280;54636;51.684;5.142;2024-03-08T03:44:59;101608.09;;;1.15;100.00
67840;BME280;54636;51.684;5.142;2024-03-08T03:47:25;101606.56;;;1.14;100.00
67840;BME280;54636;51.684;5.142;2024-03-08T03:49:52;101603.53;;;1.12;100.00
67840;BME280;54636;51.684;5.142;2024-03-08T03:52:18;101600.13;;;1.08;100.00
67840;BME280;54636;51.684;5.142;2024-03-08T03:54:44;101598.59;;;1.10;100.00
67840;BME280;54636;51.684;5.142;2024-03-08T03:57:09;101592.09;;;1.08;100.00
67840;BME280;54636;51.684;5.142;2024-03-08T03:59:34;101591.34;;;1.07;100.00
67840;BME280;54636;51.684;5.142;2024-03-08T04:02:00;101584.50;;;1.03;100.00
67840;BME280;54636;51.684;5.142;2024-03-08T04:04:25;101590.63;;;1.03;100.00
67840;BME280;54636;51.684;5.142;2024-03-08T04:06:51;101591.00;;;1.02;100.00
67840;BME280;54636;51.684;5.142;2024-03-08T04:09:17;101591.38;;;1.04;100.00
67840;BME280;54636;51.684;5.142;2024-03-08T04:11:44;101587.53;;;1.05;100.00
67840;BME280;54636;51.684;5.142;2024-03-08T04:14:10;101582.53;;;1.10;100.00
67840;BME280;54636;51.684;5.142;2024-03-08T04:16:35;101558.59;;;0.92;100.00
67840;BME280;54636;51.684;5.142;2024-03-08T04:19:01;101579.53;;;1.05;100.00
67840;BME280;54636;51.684;5.142;2024-03-08T04:21:30;101575.31;;;1.04;100.00
67840;BME280;54636;51.684;5.142;2024-03-08T04:23:55;101569.22;;;1.03;100.00
67840;BME280;54636;51.684;5.142;2024-03-08T04:26:21;101575.75;;;0.98;100.00
67840;BME280;54636;51.684;5.142;2024-03-08T04:28:47;101576.53;;;0.95;100.00
67840;BME280;54636;51.684;5.142;2024-03-08T04:31:12;101563.97;;;0.89;100.00
67840;BME280;54636;51.684;5.142;2024-03-08T04:33:38;101565.16;;;0.84;100.00
67840;BME280;54636;51.684;5.142;2024-03-08T04:36:04;101565.19;;;0.81;100.00
67840;BME280;54636;51.684;5.142;2024-03-08T04:38:30;101544.66;;;0.67;100.00
67840;BME280;54636;51.684;5.142;2024-03-08T04:40:56;101558.56;;;0.96;100.00
67840;BME280;54636;51.684;5.142;2024-03-08T04:43:22;101547.66;;;0.76;100.00
67840;BME280;54636;51.684;5.142;2024-03-08T04:45:50;101552.25;;;0.76;100.00
67840;BME280;54636;51.684;5.142;2024-03-08T04:48:16;101553.72;;;0.84;100.00
67840;BME280;54636;51.684;5.142;2024-03-08T04:50:41;101557.13;;;0.84;100.00
67840;BME280;54636;51.684;5.142;2024-03-08T04:53:07;101547.25;;;0.78;100.00
67840;BME280;54636;51.684;5.142;2024-03-08T04:55:34;101552.28;;;0.72;100.00
67840;BME280;54636;51.684;5.142;2024-03-08T04:57:59;101545.78;;;0.70;100.00
67840;BME280;54636;51.684;5.142;2024-03-08T05:00:25;101543.88;;;0.70;100.00
67840;BME280;54636;51.684;5.142;2024-03-08T05:02:50;101546.56;;;0.70;100.00
67840;BME280;54636;51.684;5.142;2024-03-08T05:05:18;101550.75;;;0.71;100.00
67840;BME280;54636;51.684;5.142;2024-03-08T05:07:44;101537.75;;;0.73;100.00
67840;BME280;54636;51.684;5.142;2024-03-08T05:10:11;101539.69;;;0.69;100.00
67840;BME280;54636;51.684;5.142;2024-03-08T05:12:36;101540.06;;;0.68;100.00
67840;BME280;54636;51.684;5.142;2024-03-08T05:15:05;101535.53;;;0.64;100.00
67840;BME280;54636;51.684;5.142;2024-03-08T05:17:30;101539.72;;;0.65;100.00
67840;BME280;54636;51.684;5.142;2024-03-08T05:19:55;101538.16;;;0.68;100.00
67840;BME280;54636;51.684;5.142;2024-03-08T05:22:21;101534.09;;;0.56;100.00
67840;BME280;54636;51.684;5.142;2024-03-08T05:24:47;101528.38;;;0.54;100.00
67840;BME280;54636;51.684;5.142;2024-03-08T05:27:12;101537.53;;;0.53;100.00
67840;BME280;54636;51.684;5.142;2024-03-08T05:29:38;101534.81;;;0.60;100.00
67840;BME280;54636;51.684;5.142;2024-03-08T05:32:04;101535.59;;;0.57;100.00
67840;BME280;54636;51.684;5.142;2024-03-08T05:34:29;101534.44;;;0.58;100.00
67840;BME280;54636;51.684;5.142;2024-03-08T05:36:55;101526.44;;;0.55;100.00
67840;BME280;54636;51.684;5.142;2024-03-08T05:39:21;101527.59;;;0.54;100.00
67840;BME280;54636;51.684;5.142;2024-03-08T05:41:47;101524.56;;;0.52;100.00
67840;BME280;54636;51.684;5.142;2024-03-08T05:44:13;101525.72;;;0.51;100.00
67840;BME280;54636;51.684;5.142;2024-03-08T05:46:39;101524.53;;;0.55;100.00
67840;BME280;54636;51.684;5.142;2024-03-08T05:49:07;101514.28;;;0.50;100.00
67840;BME280;54636;51.684;5.142;2024-03-08T05:51:36;101514.28;;;0.50;100.00
67840;BME280;54636;51.684;5.142;2024-03-08T05:54:06;101512.34;;;0.51;100.00
67840;BME280;54636;51.684;5.142;2024-03-08T05:56:32;101505.50;;;0.50;100.00
67840;BME280;54636;51.684;5.142;2024-03-08T05:58:58;101505.50;;;0.46;100.00
67840;BME280;54636;51.684;5.142;2024-03-08T06:01:24;101500.97;;;0.40;100.00
67840;BME280;54636;51.684;5.142;2024-03-08T06:03:50;101505.53;;;0.43;100.00
67840;BME280;54636;51.684;5.142;2024-03-08T06:06:15;101507.09;;;0.37;100.00
67840;BME280;54636;51.684;5.142;2024-03-08T06:08:43;101505.53;;;0.43;100.00
67840;BME280;54636;51.684;5.142;2024-03-08T06:11:09;101501.34;;;0.42;100.00
67840;BME280;54636;51.684;5.142;2024-03-08T06:13:34;101501.41;;;0.35;100.00
67840;BME280;54636;51.684;5.142;2024-03-08T06:16:01;101502.91;;;0.39;100.00
67840;BME280;54636;51.684;5.142;2024-03-08T06:18:30;101489.16;;;0.37;100.00
67840;BME280;54636;51.684;5.142;2024-03-08T06:20:55;101492.19;;;0.43;100.00
67840;BME280;54636;51.684;5.142;2024-03-08T06:23:21;101482.97;;;0.47;100.00
67840;BME280;54636;51.684;5.142;2024-03-08T06:25:47;101478.75;;;0.50;100.00
67840;BME280;54636;51.684;5.142;2024-03-08T06:28:12;101478.31;;;0.58;100.00
67840;BME280;54636;51.684;5.142;2024-03-08T06:30:39;101480.97;;;0.62;100.00
67840;BME280;54636;51.684;5.142;2024-03-08T06:33:05;101482.00;;;0.72;100.00
67840;BME280;54636;51.684;5.142;2024-03-08T06:35:30;101474.69;;;0.76;100.00
67840;BME280;54636;51.684;5.142;2024-03-08T06:37:58;101472.78;;;0.76;100.00
67840;BME280;54636;51.684;5.142;2024-03-08T06:40:23;101476.19;;;0.80;100.00
67840;BME280;54636;51.684;5.142;2024-03-08T06:42:48;101475.03;;;0.81;100.00
67840;BME280;54636;51.684;5.142;2024-03-08T06:45:14;101471.56;;;0.84;100.00
67840;BME280;54636;51.684;5.142;2024-03-08T06:47:44;101471.94;;;0.86;100.00
67840;BME280;54636;51.684;5.142;2024-03-08T06:50:11;101477.22;;;0.93;100.00
67840;BME280;54636;51.684;5.142;2024-03-08T06:52:36;101472.22;;;0.95;100.00
67840;BME280;54636;51.684;5.142;2024-03-08T06:55:02;101481.28;;;1.05;100.00
67840;BME280;54636;51.684;5.142;2024-03-08T06:57:30;101478.53;;;1.12;100.00
67840;BME280;54636;51.684;5.142;2024-03-08T06:59:56;101483.91;;;1.12;100.00
67840;BME280;54636;51.684;5.142;2024-03-08T07:02:23;101470.88;;;1.14;100.00
67840;BME280;54636;51.684;5.142;2024-03-08T07:04:50;101479.59;;;1.22;100.00
67840;BME280;54636;51.684;5.142;2024-03-08T07:07:15;101478.34;;;1.30;100.00
67840;BME280;54636;51.684;5.142;2024-03-08T07:09:44;101476.84;;;1.29;100.00
67840;BME280;54636;51.684;5.142;2024-03-08T07:12:10;101481.31;;;1.36;100.00
67840;BME280;54636;51.684;5.142;2024-03-08T07:14:37;101477.81;;;1.42;100.00
67840;BME280;54636;51.684;5.142;2024-03-08T07:17:06;101472.00;;;1.47;100.00
67840;BME280;54636;51.684;5.142;2024-03-08T07:19:34;101467.78;;;1.50;100.00
67840;BME280;54636;51.684;5.142;2024-03-08T07:21:59;101467.69;;;1.57;100.00
67840;BME280;54636;51.684;5.142;2024-03-08T07:24:25;101464.53;;;1.65;100.00
67840;BME280;54636;51.684;5.142;2024-03-08T07:27:06;101463.63;;;1.76;100.00
67840;BME280;54636;51.684;5.142;2024-03-08T07:29:32;101464.91;;;1.94;100.00
67840;BME280;54636;51.684;5.142;2024-03-08T07:31:58;101460.16;;;2.02;100.00
67840;BME280;54636;51.684;5.142;2024-03-08T07:34:42;101460.13;;;2.06;100.00
67840;BME280;54636;51.684;5.142;2024-03-08T07:37:08;101467.31;;;2.12;100.00
67840;BME280;54636;51.684;5.142;2024-03-08T07:39:37;101460.63;;;2.24;100.00
67840;BME280;54636;51.684;5.142;2024-03-08T07:42:04;101458.94;;;2.34;100.00
67840;BME280;54636;51.684;5.142;2024-03-08T07:44:29;101447.63;;;2.46;100.00
67840;BME280;54636;51.684;5.142;2024-03-08T07:46:56;101449.78;;;2.54;100.00
67840;BME280;54636;51.684;5.142;2024-03-08T07:49:21;101449.59;;;2.65;100.00
67840;BME280;54636;51.684;5.142;2024-03-08T07:51:47;101449.88;;;2.71;100.00
67840;BME280;54636;51.684;5.142;2024-03-08T07:54:12;101448.78;;;2.88;100.00
67840;BME280;54636;51.684;5.142;2024-03-08T07:56:38;101447.03;;;3.01;100.00
67840;BME280;54636;51.684;5.142;2024-03-08T07:59:03;101439.38;;;3.00;100.00
67840;BME280;54636;51.684;5.142;2024-03-08T08:01:29;101445.78;;;3.06;100.00
67840;BME280;54636;51.684;5.142;2024-03-08T08:03:56;101435.78;;;3.26;100.00
67840;BME280;54636;51.684;5.142;2024-03-08T08:06:22;101424.78;;;3.20;100.00
67840;BME280;54636;51.684;5.142;2024-03-08T08:08:47;101432.78;;;3.24;100.00
67840;BME280;54636;51.684;5.142;2024-03-08T08:11:13;101423.81;;;3.30;100.00
67840;BME280;54636;51.684;5.142;2024-03-08T08:13:38;101428.97;;;3.41;100.00
67840;BME280;54636;51.684;5.142;2024-03-08T08:16:04;101425.22;;;3.55;100.00
67840;BME280;54636;51.684;5.142;2024-03-08T08:18:31;101422.13;;;3.56;100.00
67840;BME280;54636;51.684;5.142;2024-03-08T08:20:58;101422.91;;;3.73;100.00
67840;BME280;54636;51.684;5.142;2024-03-08T08:23:25;101405.44;;;3.81;100.00
67840;BME280;54636;51.684;5.142;2024-03-08T08:25:50;101405.28;;;4.05;100.00
67840;BME280;54636;51.684;5.142;2024-03-08T08:28:17;101401.06;;;4.04;100.00
67840;BME280;54636;51.684;5.142;2024-03-08T08:30:46;101406.53;;;4.16;100.00
67840;BME280;54636;51.684;5.142;2024-03-08T08:33:11;101408.28;;;4.23;100.00
67840;BME280;54636;51.684;5.142;2024-03-08T08:35:37;101389.72;;;4.28;100.00
67840;BME280;54636;51.684;5.142;2024-03-08T08:38:06;101401.47;;;4.35;100.00
67840;BME280;54636;51.684;5.142;2024-03-08T08:40:35;101391.22;;;4.46;100.00
67840;BME280;54636;51.684;5.142;2024-03-08T08:43:02;101387.03;;;4.57;100.00
67840;BME280;54636;51.684;5.142;2024-03-08T08:45:30;101392.97;;;4.65;100.00
67840;BME280;54636;51.684;5.142;2024-03-08T08:47:56;101381.84;;;4.79;100.00
67840;BME280;54636;51.684;5.142;2024-03-08T08:50:22;101376.63;;;5.01;100.00
67840;BME280;54636;51.684;5.142;2024-03-08T08:52:51;101380.09;;;5.14;100.00
67840;BME280;54636;51.684;5.142;2024-03-08T08:55:17;101383.84;;;5.04;100.00
67840;BME280;54636;51.684;5.142;2024-03-08T08:57:46;101365.00;;;5.04;100.00
67840;BME280;54636;51.684;5.142;2024-03-08T09:00:12;101373.31;;;5.10;100.00
67840;BME280;54636;51.684;5.142;2024-03-08T09:02:40;101370.28;;;5.20;100.00
67840;BME280;54636;51.684;5.142;2024-03-08T09:05:06;101367.28;;;5.31;100.00
67840;BME280;54636;51.684;5.142;2024-03-08T09:07:33;101356.53;;;5.44;100.00
67840;BME280;54636;51.684;5.142;2024-03-08T09:09:59;101352.66;;;5.57;97.93
67840;BME280;54636;51.684;5.142;2024-03-08T09:12:25;101350.91;;;5.76;97.69
67840;BME280;54636;51.684;5.142;2024-03-08T09:14:51;101351.22;;;5.78;96.43
67840;BME280;54636;51.684;5.142;2024-03-08T09:17:16;101343.63;;;5.86;96.81
67840;BME280;54636;51.684;5.142;2024-03-08T09:19:48;101344.19;;;5.93;95.08
67840;BME280;54636;51.684;5.142;2024-03-08T09:22:13;101348.50;;;5.91;91.92
67840;BME280;54636;51.684;5.142;2024-03-08T09:24:39;101339.88;;;5.96;95.15
67840;BME280;54636;51.684;5.142;2024-03-08T09:27:04;101337.25;;;6.05;93.49
67840;BME280;54636;51.684;5.142;2024-03-08T09:29:30;101338.84;;;6.15;94.78
67840;BME280;54636;51.684;5.142;2024-03-08T09:31:55;101335.00;;;6.38;91.54
67840;BME280;54636;51.684;5.142;2024-03-08T09:34:21;101318.75;;;6.29;91.49
67840;BME280;54636;51.684;5.142;2024-03-08T09:36:46;101317.56;;;6.30;91.16
67840;BME280;54636;51.684;5.142;2024-03-08T09:39:12;101325.09;;;6.35;90.85
67840;BME280;54636;51.684;5.142;2024-03-08T09:41:43;101307.66;;;6.49;94.19
67840;BME280;54636;51.684;5.142;2024-03-08T09:44:09;101301.72;;;6.63;93.32
67840;BME280;54636;51.684;5.142;2024-03-08T09:46:34;101293.88;;;6.78;89.33
67840;BME280;54636;51.684;5.142;2024-03-08T09:49:00;101285.94;;;6.83;88.37
67840;BME280;54636;51.684;5.142;2024-03-08T09:51:29;101281.03;;;6.91;87.28
67840;BME280;54636;51.684;5.142;2024-03-08T09:53:56;101280.28;;;6.90;85.75
67840;BME280;54636;51.684;5.142;2024-03-08T09:56:23;101275.81;;;6.97;88.92
67840;BME280;54636;51.684;5.142;2024-03-08T09:58:49;101262.03;;;7.04;87.11
67840;BME280;54636;51.684;5.142;2024-03-08T10:01:39;101258.75;;;7.09;85.92
67840;BME280;54636;51.684;5.142;2024-03-08T10:04:06;101253.66;;;7.11;83.92
67840;BME280;54636;51.684;5.142;2024-03-08T10:06:32;101252.91;;;7.19;81.83
67840;BME280;54636;51.684;5.142;2024-03-08T10:08:57;101250.53;;;7.21;84.22
67840;BME280;54636;51.684;5.142;2024-03-08T10:11:24;101242.91;;;7.38;84.13
67840;BME280;54636;51.684;5.142;2024-03-08T10:13:50;101232.56;;;7.46;84.21
67840;BME280;54636;51.684;5.142;2024-03-08T10:16:16;101230.94;;;7.67;78.70
67840;BME280;54636;51.684;5.142;2024-03-08T10:18:47;101219.38;;;7.75;79.07
67840;BME280;54636;51.684;5.142;2024-03-08T10:21:12;101215.78;;;7.69;77.69
67840;BME280;54636;51.684;5.142;2024-03-08T10:23:40;101206.47;;;7.70;78.73
67840;BME280;54636;51.684;5.142;2024-03-08T10:26:16;101211.41;;;7.81;78.82
67840;BME280;54636;51.684;5.142;2024-03-08T10:28:50;101208.53;;;7.84;78.97
67840;BME280;54636;51.684;5.142;2024-03-08T10:31:16;101199.06;;;7.98;77.09
67840;BME280;54636;51.684;5.142;2024-03-08T10:33:42;101194.09;;;8.06;76.24
67840;BME280;54636;51.684;5.142;2024-03-08T10:36:08;101188.84;;;8.11;75.48
67840;BME280;54636;51.684;5.142;2024-03-08T10:38:41;101187.00;;;8.26;72.66
67840;BME280;54636;51.684;5.142;2024-03-08T10:41:09;101185.34;;;8.38;75.48
67840;BME280;54636;51.684;5.142;2024-03-08T10:44:02;101177.16;;;8.56;70.40
67840;BME280;54636;51.684;5.142;2024-03-08T10:49:16;101171.75;;;8.56;69.85
67840;BME280;54636;51.684;5.142;2024-03-08T10:51:42;101163.16;;;8.58;69.70
67840;BME280;54636;51.684;5.142;2024-03-08T10:54:09;101163.59;;;8.66;69.11
67840;BME280;54636;51.684;5.142;2024-03-08T10:56:35;101162.22;;;8.70;68.85
67840;BME280;54636;51.684;5.142;2024-03-08T10:59:01;101154.16;;;8.85;66.05
67840;BME280;54636;51.684;5.142;2024-03-08T11:01:29;101153.25;;;8.88;66.71
67840;BME280;54636;51.684;5.142;2024-03-08T11:03:55;101151.13;;;8.92;68.31
67840;BME280;54636;51.684;5.142;2024-03-08T11:09:02;101139.19;;;8.99;64.10
67840;BME280;54636;51.684;5.142;2024-03-08T11:11:30;101131.75;;;9.08;66.77
67840;BME280;54636;51.684;5.142;2024-03-08T11:13:57;101111.03;;;9.20;65.40
67840;BME280;54636;51.684;5.142;2024-03-08T11:18:58;101118.97;;;9.23;63.42
67840;BME280;54636;51.684;5.142;2024-03-08T11:21:31;101113.66;;;9.29;61.00
67840;BME280;54636;51.684;5.142;2024-03-08T11:24:06;101115.13;;;9.15;62.58
67840;BME280;54636;51.684;5.142;2024-03-08T11:26:33;101119.28;;;9.25;62.23
67840;BME280;54636;51.684;5.142;2024-03-08T11:32:10;101106.81;;;9.57;60.97
67840;BME280;54636;51.684;5.142;2024-03-08T11:34:35;101112.81;;;9.62;59.42
67840;BME280;54636;51.684;5.142;2024-03-08T11:37:04;101096.34;;;9.50;60.87
67840;BME280;54636;51.684;5.142;2024-03-08T11:39:30;101094.03;;;9.73;58.05
67840;BME280;54636;51.684;5.142;2024-03-08T11:41:56;101106.63;;;9.61;58.14
67840;BME280;54636;51.684;5.142;2024-03-08T11:44:21;101099.44;;;9.73;57.10
67840;BME280;54636;51.684;5.142;2024-03-08T11:46:52;101090.38;;;9.61;57.19
67840;BME280;54636;51.684;5.142;2024-03-08T11:49:19;101092.22;;;9.55;58.37
67840;BME280;54636;51.684;5.142;2024-03-08T11:51:45;101091.50;;;9.69;57.84
67840;BME280;54636;51.684;5.142;2024-03-08T11:54:12;101094.09;;;9.78;57.63
67840;BME280;54636;51.684;5.142;2024-03-08T11:56:40;101082.78;;;9.80;57.44
67840;BME280;54636;51.684;5.142;2024-03-08T11:59:11;101081.56;;;9.81;58.79
67840;BME280;54636;51.684;5.142;2024-03-08T12:01:38;101085.09;;;10.02;56.73
67840;BME280;54636;51.684;5.142;2024-03-08T12:04:03;101069.84;;;10.04;56.28
67840;BME280;54636;51.684;5.142;2024-03-08T12:06:38;101064.91;;;10.03;57.71
67840;BME280;54636;51.684;5.142;2024-03-08T12:09:13;101062.75;;;10.07;56.37
67840;BME280;54636;51.684;5.142;2024-03-08T12:11:40;101062.94;;;9.88;57.17
67840;BME280;54636;51.684;5.142;2024-03-08T12:14:06;101054.69;;;9.98;57.17
67840;BME280;54636;51.684;5.142;2024-03-08T12:16:32;101050.09;;;10.18;56.24
67840;BME280;54636;51.684;5.142;2024-03-08T12:18:57;101041.09;;;10.12;56.05
67840;BME280;54636;51.684;5.142;2024-03-08T12:21:26;101043.75;;;10.21;55.11
67840;BME280;54636;51.684;5.142;2024-03-08T12:24:08;101039.22;;;10.18;55.56
67840;BME280;54636;51.684;5.142;2024-03-08T12:26:38;101035.31;;;10.19;56.48
67840;BME280;54636;51.684;5.142;2024-03-08T12:29:26;101033.78;;;10.18;59.26
67840;BME280;54636;51.684;5.142;2024-03-08T12:31:58;101022.84;;;10.28;58.78
67840;BME280;54636;51.684;5.142;2024-03-08T12:34:26;101019.75;;;10.35;58.90
67840;BME280;54636;51.684;5.142;2024-03-08T12:36:57;101012.34;;;10.35;59.73
67840;BME280;54636;51.684;5.142;2024-03-08T12:39:23;101012.94;;;10.45;59.27
67840;BME280;54636;51.684;5.142;2024-03-08T12:41:52;101006.75;;;10.44;59.85
67840;BME280;54636;51.684;5.142;2024-03-08T12:44:18;100992.03;;;10.51;59.76
67840;BME280;54636;51.684;5.142;2024-03-08T12:46:46;100985.50;;;10.43;59.04
67840;BME280;54636;51.684;5.142;2024-03-08T12:49:13;100989.44;;;10.42;59.60
67840;BME280;54636;51.684;5.142;2024-03-08T12:51:45;100986.50;;;10.40;58.99
67840;BME280;54636;51.684;5.142;2024-03-08T12:54:11;100970.66;;;10.59;58.52
67840;BME280;54636;51.684;5.142;2024-03-08T12:56:37;100984.91;;;10.74;53.21
67840;BME280;54636;51.684;5.142;2024-03-08T12:59:07;100983.00;;;10.60;52.99
67840;BME280;54636;51.684;5.142;2024-03-08T13:01:35;100965.63;;;10.72;53.00